createdAt,value
2018-12-21T00:01:36.600Z,3.00
2018-12-21T00:09:01.522Z,3.10
2018-12-21T00:11:29.851Z,3.00
2018-12-21T00:13:58.183Z,3.00
2018-12-21T00:16:26.466Z,3.00
2018-12-21T00:21:22.945Z,3.10
2018-12-21T00:23:51.310Z,3.00
2018-12-21T00:26:19.684Z,3.10
2018-12-21T00:28:48.210Z,3.20
2018-12-21T00:38:39.563Z,2.70
2018-12-21T00:48:56.968Z,3.20
2018-12-21T00:53:55.810Z,3.30
2018-12-21T00:56:24.241Z,3.40
2018-12-21T00:58:52.694Z,3.40
2018-12-21T01:01:21.381Z,3.40
2018-12-21T01:03:49.810Z,3.60
2018-12-21T01:06:18.236Z,3.30
2018-12-21T01:08:46.621Z,3.30
2018-12-21T01:11:14.970Z,3.30
2018-12-21T01:13:43.391Z,3.30
2018-12-21T01:16:12.856Z,3.30
2018-12-21T01:18:41.222Z,3.30
2018-12-21T01:21:11.021Z,3.30
2018-12-21T01:23:39.510Z,2.90
2018-12-21T01:26:07.902Z,3.30
2018-12-21T01:28:36.171Z,3.30
2018-12-21T01:31:04.565Z,3.30
2018-12-21T01:33:33.006Z,3.20
2018-12-21T01:36:01.367Z,3.10
2018-12-21T01:40:57.880Z,3.10
2018-12-21T01:43:26.187Z,3.00
2018-12-21T01:45:54.550Z,3.10
2018-12-21T01:48:22.937Z,3.10
2018-12-21T01:50:51.290Z,3.00
2018-12-21T01:53:19.661Z,3.00
2018-12-21T01:55:48.016Z,3.00
2018-12-21T01:58:16.412Z,3.00
2018-12-21T02:00:44.792Z,3.10
2018-12-21T02:03:13.066Z,3.00
2018-12-21T02:08:09.565Z,3.10
2018-12-21T02:10:37.998Z,3.10
2018-12-21T02:13:06.393Z,3.00
2018-12-21T02:15:34.822Z,3.00
2018-12-21T02:18:03.299Z,3.00
2018-12-21T02:20:31.691Z,3.10
2018-12-21T02:23:00.121Z,3.10
2018-12-21T02:25:28.560Z,3.00
2018-12-21T02:27:57.003Z,2.90
2018-12-21T02:30:25.323Z,2.90
2018-12-21T02:32:53.938Z,3.00
2018-12-21T02:35:22.519Z,2.90
2018-12-21T02:40:18.932Z,2.80
2018-12-21T02:42:47.436Z,2.80
2018-12-21T02:45:16.002Z,2.90
2018-12-21T02:47:44.290Z,2.90
2018-12-21T02:50:12.717Z,3.00
2018-12-21T02:52:41.041Z,3.00
2018-12-21T02:55:09.361Z,3.00
2018-12-21T02:57:37.667Z,2.90
2018-12-21T03:00:07.273Z,3.00
2018-12-21T03:02:35.683Z,2.90
2018-12-21T03:05:04.054Z,3.00
2018-12-21T03:07:32.416Z,3.00
2018-12-21T03:10:00.745Z,2.90
2018-12-21T03:12:29.134Z,2.90
2018-12-21T03:14:57.573Z,2.90
2018-12-21T03:17:26.115Z,2.90
2018-12-21T03:22:22.716Z,2.90
2018-12-21T03:24:51.241Z,2.90
2018-12-21T03:29:47.694Z,2.80
2018-12-21T03:32:16.105Z,2.90
2018-12-21T03:37:12.816Z,2.90
2018-12-21T03:39:42.251Z,3.00
2018-12-21T03:42:10.659Z,2.70
2018-12-21T03:44:39.011Z,2.70
2018-12-21T03:47:07.385Z,2.70
2018-12-21T03:49:35.712Z,2.80
2018-12-21T03:52:04.122Z,2.80
2018-12-21T03:57:00.740Z,2.60
2018-12-21T03:59:29.170Z,2.80
2018-12-21T04:01:57.672Z,2.90
2018-12-21T04:04:26.057Z,3.00
2018-12-21T04:06:54.421Z,3.00
2018-12-21T04:09:22.774Z,2.90
2018-12-21T04:12:54.280Z,2.90
2018-12-21T04:15:22.778Z,2.80
2018-12-21T04:17:51.300Z,2.90
2018-12-21T04:20:19.638Z,2.90
2018-12-21T04:25:16.129Z,3.20
2018-12-21T04:27:44.569Z,3.10
2018-12-21T04:30:12.938Z,3.20
2018-12-21T04:32:41.328Z,3.20
2018-12-21T04:35:09.785Z,3.20
2018-12-21T04:37:38.129Z,3.20
2018-12-21T04:40:07.994Z,3.30
2018-12-21T04:42:36.381Z,3.30
2018-12-21T04:45:05.036Z,3.30
2018-12-21T04:47:33.441Z,3.20
2018-12-21T04:50:01.833Z,3.20
2018-12-21T04:59:54.739Z,3.20
2018-12-21T05:02:23.051Z,3.20
2018-12-21T05:04:51.434Z,3.40
2018-12-21T05:07:19.888Z,3.40
2018-12-21T05:09:48.353Z,3.50
2018-12-21T05:12:16.706Z,3.40
2018-12-21T05:14:45.104Z,3.50
2018-12-21T05:17:13.512Z,3.60
2018-12-21T05:19:41.916Z,3.60
2018-12-21T05:22:10.219Z,3.70
2018-12-21T05:24:38.691Z,3.80
2018-12-21T05:27:07.036Z,3.90
2018-12-21T05:32:03.486Z,4.20
2018-12-21T05:34:31.894Z,4.30
2018-12-21T05:39:28.322Z,4.50
2018-12-21T05:44:25.120Z,5.00
2018-12-21T05:46:53.460Z,4.90
2018-12-21T05:49:21.893Z,5.00
2018-12-21T05:51:50.231Z,5.10
2018-12-21T05:54:18.556Z,5.00
2018-12-21T05:56:46.975Z,4.90
2018-12-21T05:59:15.374Z,4.80
2018-12-21T06:01:43.741Z,4.70
2018-12-21T06:04:12.082Z,4.60
2018-12-21T06:06:40.504Z,4.50
2018-12-21T06:09:09.093Z,4.50
2018-12-21T06:11:37.422Z,4.30
2018-12-21T06:14:05.849Z,4.30
2018-12-21T06:16:34.233Z,3.80
2018-12-21T06:19:02.589Z,3.90
2018-12-21T06:21:30.838Z,3.90
2018-12-21T06:26:27.335Z,3.80
2018-12-21T06:28:55.712Z,3.80
2018-12-21T06:31:24.174Z,3.80
2018-12-21T06:36:21.549Z,3.70
2018-12-21T06:43:46.122Z,3.50
2018-12-21T06:46:14.567Z,3.50
2018-12-21T06:48:42.882Z,3.50
2018-12-21T06:51:11.203Z,3.60
2018-12-21T06:53:39.478Z,3.60
2018-12-21T06:56:07.813Z,3.60
2018-12-21T07:01:04.303Z,3.40
2018-12-21T07:03:32.656Z,3.40
2018-12-21T07:06:01.031Z,3.30
2018-12-21T07:08:29.506Z,3.30
2018-12-21T07:10:57.998Z,3.20
2018-12-21T07:13:26.332Z,3.30
2018-12-21T07:15:54.746Z,3.30
2018-12-21T07:18:23.148Z,3.30
2018-12-21T07:20:51.576Z,2.40
2018-12-21T07:23:27.112Z,3.40
2018-12-21T07:28:18.415Z,3.30
2018-12-21T07:33:14.924Z,3.20
2018-12-21T07:35:43.468Z,3.10
2018-12-21T07:38:11.802Z,3.10
2018-12-21T07:40:40.372Z,3.10
2018-12-21T07:50:33.054Z,3.20
2018-12-21T07:53:01.474Z,3.20
2018-12-21T07:55:29.803Z,3.10
2018-12-21T07:57:58.716Z,3.20
2018-12-21T08:00:27.183Z,3.10
2018-12-21T08:02:55.516Z,3.10
2018-12-21T08:05:23.879Z,3.20
2018-12-21T08:07:52.198Z,3.20
2018-12-21T08:10:20.915Z,3.30
2018-12-21T08:12:49.349Z,3.30
2018-12-21T08:15:17.679Z,3.30
2018-12-21T08:17:46.145Z,3.40
2018-12-21T08:20:14.723Z,3.50
2018-12-21T08:22:43.111Z,3.60
2018-12-21T08:25:11.476Z,3.70
2018-12-21T08:27:39.817Z,3.80
2018-12-21T08:30:09.671Z,3.80
2018-12-21T08:32:38.256Z,3.80
2018-12-21T08:35:06.748Z,4.50
2018-12-21T08:37:35.092Z,3.90
2018-12-21T08:40:03.517Z,4.00
2018-12-21T08:42:31.939Z,3.70
2018-12-21T08:45:00.359Z,4.00
2018-12-21T08:49:56.950Z,4.10
2018-12-21T08:52:25.375Z,4.20
2018-12-21T08:54:53.881Z,4.20
2018-12-21T08:57:22.372Z,4.30
2018-12-21T09:02:20.934Z,4.50
2018-12-21T09:04:49.281Z,4.50
2018-12-21T09:07:17.691Z,4.60
2018-12-21T09:09:46.182Z,4.60
2018-12-21T09:12:14.806Z,4.70
2018-12-21T09:14:43.394Z,4.70
2018-12-21T09:17:11.928Z,4.80
2018-12-21T09:19:40.485Z,4.90
2018-12-21T09:22:09.092Z,4.90
2018-12-21T09:24:37.654Z,4.90
2018-12-21T09:27:06.334Z,5.10
2018-12-21T09:29:34.956Z,5.10
2018-12-21T09:32:05.244Z,5.10
2018-12-21T09:34:34.043Z,5.20
2018-12-21T09:37:02.593Z,5.20
2018-12-21T09:41:59.080Z,5.30
2018-12-21T09:49:23.900Z,5.60
2018-12-21T09:54:20.416Z,5.90
2018-12-21T09:56:48.861Z,6.00
2018-12-21T09:59:17.487Z,7.20
2018-12-21T10:01:45.882Z,7.20
2018-12-21T10:04:14.655Z,7.50
2018-12-21T10:06:43.060Z,7.30
2018-12-21T10:09:11.402Z,7.10
2018-12-21T10:11:39.713Z,6.90
2018-12-21T10:14:08.227Z,6.70
2018-12-21T10:16:36.539Z,6.70
2018-12-21T10:19:04.909Z,6.70
2018-12-21T10:21:33.262Z,6.60
2018-12-21T10:24:01.667Z,6.60
2018-12-21T10:28:58.145Z,6.40
2018-12-21T10:31:26.582Z,6.50
2018-12-21T10:33:54.913Z,6.40
2018-12-21T10:36:23.239Z,6.30
2018-12-21T10:38:51.672Z,6.30
2018-12-21T10:41:20.001Z,6.40
2018-12-21T10:43:48.289Z,6.20
2018-12-21T10:46:16.645Z,6.30
2018-12-21T10:48:45.143Z,6.40
2018-12-21T10:51:13.507Z,6.50
2018-12-21T10:53:41.855Z,6.50
2018-12-21T10:58:38.335Z,6.70
2018-12-21T11:01:06.798Z,6.70
2018-12-21T11:03:35.099Z,6.70
2018-12-21T11:06:03.533Z,6.70
2018-12-21T11:08:31.898Z,6.80
2018-12-21T11:11:00.341Z,6.80
2018-12-21T11:13:28.783Z,6.80
2018-12-21T11:15:57.245Z,6.90
2018-12-21T11:18:28.666Z,6.90
2018-12-21T11:20:56.993Z,6.90
2018-12-21T11:23:25.394Z,6.90
2018-12-21T11:25:53.837Z,6.90
2018-12-21T11:28:25.456Z,7.00
2018-12-21T11:30:52.678Z,7.10
2018-12-21T11:33:21.085Z,7.10
2018-12-21T11:35:49.403Z,7.10
2018-12-21T11:38:17.802Z,7.00
2018-12-21T11:40:46.200Z,7.10
2018-12-21T11:43:14.548Z,6.90
2018-12-21T11:45:42.906Z,6.70
2018-12-21T11:50:39.325Z,7.30
2018-12-21T11:53:07.725Z,7.40
2018-12-21T11:55:36.146Z,7.50
2018-12-21T11:58:04.477Z,7.50
2018-12-21T12:00:32.808Z,7.80
2018-12-21T12:03:01.134Z,7.90
2018-12-21T12:05:29.448Z,7.90
2018-12-21T12:07:57.871Z,8.10
2018-12-21T12:10:26.223Z,8.20
2018-12-21T12:12:54.478Z,8.40
2018-12-21T12:15:22.848Z,8.70
2018-12-21T12:17:51.209Z,8.70
2018-12-21T12:20:19.519Z,8.60
2018-12-21T12:22:47.882Z,8.70
2018-12-21T12:25:16.270Z,8.70
2018-12-21T12:27:44.696Z,8.60
2018-12-21T12:30:13.055Z,8.70
2018-12-21T12:32:41.521Z,8.70
2018-12-21T12:35:09.799Z,8.50
2018-12-21T12:37:38.119Z,8.40
2018-12-21T12:40:07.931Z,8.40
2018-12-21T12:50:00.774Z,8.20
2018-12-21T12:52:29.080Z,8.30
2018-12-21T12:55:02.535Z,8.30
2018-12-21T12:57:27.733Z,8.30
2018-12-21T12:59:56.185Z,8.20
2018-12-21T13:02:24.522Z,8.20
2018-12-21T13:04:52.860Z,8.20
2018-12-21T13:07:21.217Z,8.20
2018-12-21T13:09:49.504Z,8.20
2018-12-21T13:12:17.906Z,8.20
2018-12-21T13:14:46.178Z,8.20
2018-12-21T13:17:14.519Z,8.30
2018-12-21T13:19:42.775Z,8.30
2018-12-21T13:22:11.116Z,8.40
2018-12-21T13:24:39.526Z,8.40
2018-12-21T13:27:07.939Z,8.40
2018-12-21T13:29:36.213Z,8.40
2018-12-21T13:32:04.575Z,8.30
2018-12-21T13:34:32.912Z,8.30
2018-12-21T13:37:01.178Z,8.20
2018-12-21T13:39:29.449Z,8.10
2018-12-21T13:41:57.788Z,8.10
2018-12-21T13:46:54.232Z,8.00
2018-12-21T13:51:50.615Z,8.00
2018-12-21T13:54:18.955Z,8.00
2018-12-21T13:56:47.354Z,8.00
2018-12-21T13:59:15.661Z,8.00
2018-12-21T14:01:44.220Z,8.00
2018-12-21T14:04:12.578Z,7.90
2018-12-21T14:06:40.893Z,7.90
2018-12-21T14:09:09.179Z,7.90
2018-12-21T14:11:37.592Z,7.90
2018-12-21T14:14:06.938Z,7.80
2018-12-21T14:16:35.536Z,7.90
2018-12-21T14:19:03.793Z,7.90
2018-12-21T14:21:32.098Z,7.90
2018-12-21T14:24:00.459Z,7.80
2018-12-21T14:26:28.841Z,7.70
2018-12-21T14:31:25.178Z,7.70
2018-12-21T14:33:53.518Z,7.70
2018-12-21T14:36:21.882Z,7.70
2018-12-21T14:41:18.266Z,7.60
2018-12-21T14:46:14.748Z,7.50
2018-12-21T14:48:43.148Z,7.50
2018-12-21T14:51:11.540Z,7.40
2018-12-21T14:53:39.805Z,7.50
2018-12-21T14:56:08.139Z,7.50
2018-12-21T14:58:36.393Z,7.50
2018-12-21T15:01:04.666Z,7.50
2018-12-21T15:03:33.198Z,7.50
2018-12-21T15:06:01.538Z,7.50
2018-12-21T15:08:29.876Z,7.40
2018-12-21T15:10:58.237Z,7.40
2018-12-21T15:13:26.630Z,7.50
2018-12-21T15:15:55.166Z,7.50
2018-12-21T15:18:23.523Z,7.60
2018-12-21T15:20:51.801Z,7.80
2018-12-21T15:23:20.158Z,7.80
2018-12-21T15:25:48.497Z,7.80
2018-12-21T15:28:16.834Z,7.90
2018-12-21T15:33:13.478Z,7.90
2018-12-21T15:43:06.143Z,8.00
2018-12-21T15:45:34.470Z,8.10
2018-12-21T15:48:02.851Z,8.00
2018-12-21T15:50:31.336Z,8.10
2018-12-21T15:52:59.820Z,8.20
2018-12-21T15:55:28.262Z,8.40
2018-12-21T15:57:56.576Z,8.40
2018-12-21T16:00:24.827Z,8.40
2018-12-21T16:02:55.551Z,8.40
2018-12-21T16:05:23.865Z,8.50
2018-12-21T16:07:52.184Z,8.40
2018-12-21T16:10:20.379Z,8.40
2018-12-21T16:12:48.730Z,8.40
2018-12-21T16:15:17.050Z,8.40
2018-12-21T16:17:46.651Z,8.40
2018-12-21T16:20:15.599Z,8.40
2018-12-21T16:22:43.917Z,8.50
2018-12-21T16:25:12.283Z,8.50
2018-12-21T16:27:40.630Z,8.40
2018-12-21T16:30:11.282Z,8.40
2018-12-21T16:32:39.755Z,8.50
2018-12-21T16:35:08.142Z,8.40
2018-12-21T16:45:01.156Z,8.70
2018-12-21T16:47:29.789Z,10.00
2018-12-21T16:49:58.188Z,8.80
2018-12-21T16:52:26.506Z,8.80
2018-12-21T16:54:55.089Z,9.00
2018-12-21T16:57:23.706Z,9.10
2018-12-21T16:59:52.344Z,9.10
2018-12-21T17:02:20.702Z,9.20
2018-12-21T17:04:49.027Z,9.10
2018-12-21T17:07:17.442Z,9.30
2018-12-21T17:09:45.969Z,9.20
2018-12-21T17:12:14.357Z,9.30
2018-12-21T17:14:42.730Z,9.40
2018-12-21T17:17:11.264Z,7.50
2018-12-21T17:19:39.715Z,9.50
2018-12-21T17:22:08.087Z,9.60
2018-12-21T17:24:36.467Z,9.80
2018-12-21T17:27:04.947Z,9.70
2018-12-21T17:29:33.488Z,9.50
2018-12-21T17:32:02.180Z,9.90
2018-12-21T17:41:54.947Z,9.90
2018-12-21T17:46:51.369Z,10.10
2018-12-21T17:49:19.737Z,10.10
2018-12-21T17:51:48.432Z,10.20
2018-12-21T17:54:17.229Z,10.40
2018-12-21T17:56:45.584Z,10.30
2018-12-21T17:59:14.479Z,10.30
2018-12-21T18:01:43.988Z,10.40
2018-12-21T18:04:43.546Z,10.50
2018-12-21T18:07:11.897Z,10.40
2018-12-21T18:09:40.321Z,10.60
2018-12-21T18:12:09.374Z,10.70
2018-12-21T18:17:06.455Z,10.80
2018-12-21T18:19:34.863Z,10.90
2018-12-21T18:22:10.900Z,10.90
2018-12-21T18:24:39.263Z,10.90
2018-12-21T18:27:07.593Z,10.90
2018-12-21T18:29:37.776Z,10.80
2018-12-21T18:32:18.312Z,10.80
2018-12-21T18:34:46.922Z,10.80
2018-12-21T18:37:15.312Z,10.80
2018-12-21T18:39:43.663Z,10.80
2018-12-21T18:42:11.946Z,10.90
2018-12-21T18:44:40.511Z,10.70
2018-12-21T18:47:08.874Z,10.60
2018-12-21T18:57:05.339Z,10.60
2018-12-21T18:59:33.647Z,10.90
2018-12-21T19:02:01.956Z,10.90
2018-12-21T19:04:30.164Z,10.80
2018-12-21T19:06:58.491Z,10.70
2018-12-21T19:09:26.998Z,10.60
2018-12-21T19:14:23.522Z,10.50
2018-12-21T19:16:51.926Z,10.50
2018-12-21T19:19:20.302Z,10.50
2018-12-21T19:21:48.636Z,10.50
2018-12-21T19:24:17.424Z,10.50
2018-12-21T19:26:45.814Z,10.40
2018-12-21T19:29:14.112Z,10.60
2018-12-21T19:31:42.542Z,10.60
2018-12-21T19:34:10.868Z,10.60
2018-12-21T19:36:39.283Z,10.60
2018-12-21T19:41:37.261Z,10.80
2018-12-21T19:44:05.623Z,10.80
2018-12-21T19:57:30.921Z,11.00
2018-12-21T19:59:59.202Z,11.10
2018-12-21T20:02:27.535Z,10.60
2018-12-21T20:04:56.123Z,11.00
2018-12-21T20:09:52.624Z,11.10
2018-12-21T20:12:20.996Z,11.10
2018-12-21T20:17:17.663Z,11.10
2018-12-21T20:19:46.033Z,11.00
2018-12-21T20:22:14.361Z,11.00
2018-12-21T20:24:43.015Z,11.10
2018-12-21T20:27:14.055Z,11.10
2018-12-21T20:29:42.984Z,11.20
2018-12-21T20:32:12.534Z,11.30
2018-12-21T20:34:40.979Z,11.30
2018-12-21T20:37:09.354Z,11.40
2018-12-21T20:39:40.923Z,11.50
2018-12-21T20:42:09.379Z,11.50
2018-12-21T20:44:37.734Z,11.60
2018-12-21T20:47:06.169Z,11.60
2018-12-21T20:49:34.534Z,11.60
2018-12-21T20:52:02.927Z,11.70
2018-12-21T20:54:31.225Z,11.70
2018-12-21T20:57:01.102Z,11.80
2018-12-21T20:59:30.663Z,11.70
2018-12-21T21:02:00.137Z,11.60
2018-12-21T21:04:28.889Z,11.80
2018-12-21T21:06:57.472Z,11.50
2018-12-21T21:09:25.751Z,11.60
2018-12-21T21:11:54.026Z,11.70
2018-12-21T21:16:50.943Z,11.60
2018-12-21T21:19:19.175Z,11.70
2018-12-21T21:21:47.556Z,11.70
2018-12-21T21:24:15.893Z,11.70
2018-12-21T21:26:44.329Z,11.80
2018-12-21T21:29:12.866Z,11.80
2018-12-21T21:31:44.558Z,11.80
2018-12-21T21:34:12.880Z,11.80
2018-12-21T21:36:41.154Z,11.70
2018-12-21T21:39:09.419Z,11.90
2018-12-21T21:41:37.681Z,11.80
2018-12-21T21:44:06.394Z,11.80
2018-12-21T21:46:34.723Z,11.70
2018-12-21T21:49:03.982Z,11.70
2018-12-21T21:51:32.386Z,11.80
2018-12-21T21:54:00.589Z,11.80
2018-12-21T21:56:28.872Z,11.90
2018-12-21T21:58:57.136Z,11.90
2018-12-21T22:01:25.344Z,11.90
2018-12-21T22:03:54.589Z,11.80
2018-12-21T22:06:22.838Z,11.80
2018-12-21T22:08:51.055Z,11.70
2018-12-21T22:11:19.460Z,11.80
2018-12-21T22:13:47.707Z,11.90
2018-12-21T22:21:11.895Z,11.90
2018-12-21T22:23:40.109Z,12.00
2018-12-21T22:26:08.324Z,12.00
2018-12-21T22:28:36.604Z,12.10
2018-12-21T22:31:04.959Z,12.00
2018-12-21T22:33:34.297Z,12.00
2018-12-21T22:36:02.591Z,11.90
2018-12-21T22:38:30.837Z,11.90
2018-12-21T22:40:59.161Z,11.90
2018-12-21T22:43:27.358Z,11.80
2018-12-21T22:45:55.685Z,11.80
2018-12-21T22:48:24.083Z,11.90
2018-12-21T22:50:52.344Z,12.00
2018-12-21T22:53:20.710Z,11.70
2018-12-21T22:58:17.053Z,11.80
2018-12-21T23:00:45.375Z,11.80
2018-12-21T23:03:13.563Z,11.80
2018-12-21T23:05:41.777Z,11.80
2018-12-21T23:08:10.000Z,11.70
2018-12-21T23:10:38.235Z,11.70
2018-12-21T23:13:06.436Z,11.70
2018-12-21T23:15:34.671Z,11.90
2018-12-21T23:18:02.904Z,11.90
2018-12-21T23:20:31.083Z,11.80
2018-12-21T23:23:00.348Z,11.90
2018-12-21T23:25:28.547Z,11.80
2018-12-21T23:28:04.786Z,11.70
2018-12-21T23:30:27.010Z,11.70
2018-12-21T23:32:55.207Z,11.70
2018-12-21T23:35:23.396Z,11.70
2018-12-21T23:37:51.597Z,11.70
2018-12-21T23:40:19.783Z,11.70
2018-12-21T23:42:48.078Z,11.60
2018-12-21T23:45:16.351Z,11.70
2018-12-21T23:47:44.621Z,11.50
2018-12-21T23:50:12.922Z,11.60
2018-12-21T23:52:41.271Z,11.60
